Time;durP1;ratioP1;P1;durP2;ratioP2;P2;SDS_P1;SDS_P2;PMS_P1;PMS_P2;Temp;Humidity;BMP_temperature;BMP_pressure;BME280_temperature;BME280_humidity;BME280_pressure;Samples;Min_cycle;Max_cycle;Signal;HPM_P1;HPM_P2
2021/06/02 00:04:03;;;;;;;0.77;0.77;;;;;;;13.83;47.95;96303.66;5109574;28;20490;-74
2021/06/02 00:06:34;;;;;;;0.80;0.80;;;;;;;13.79;48.16;96304.13;5114907;28;20054;-75
2021/06/02 00:09:01;;;;;;;0.82;0.80;;;;;;;13.75;48.20;96304.84;5115346;28;20036;-75
2021/06/02 00:11:28;;;;;;;0.65;0.65;;;;;;;13.71;48.18;96306.38;5115388;28;20429;-75
2021/06/02 00:13:55;;;;;;;0.80;0.80;;;;;;;13.68;48.42;96309.50;5115349;28;20032;-75
2021/06/02 00:16:24;;;;;;;0.90;0.90;;;;;;;13.63;48.47;96304.13;5115376;28;20051;-75
2021/06/02 00:18:51;;;;;;;0.82;0.82;;;;;;;13.56;48.53;96297.19;5114803;28;20479;-74
2021/06/02 00:21:17;;;;;;;1.75;1.00;;;;;;;13.49;48.70;96304.47;5114414;28;20066;-75
2021/06/02 00:23:44;;;;;;;1.25;0.82;;;;;;;13.44;48.96;96295.66;5115369;28;20043;-75
2021/06/02 00:26:13;;;;;;;1.17;0.80;;;;;;;13.40;49.09;96300.63;5114840;28;20399;-75
2021/06/02 00:28:39;;;;;;;0.80;0.80;;;;;;;13.37;49.13;96301.09;5114984;27;20032;-75
2021/06/02 00:31:06;;;;;;;0.85;0.82;;;;;;;13.31;49.38;96297.59;5114450;28;20036;-75
2021/06/02 00:33:32;;;;;;;1.00;1.00;;;;;;;13.26;49.44;96297.47;5115036;28;20071;-76
2021/06/02 00:36:01;;;;;;;0.80;0.80;;;;;;;13.23;49.67;96302.41;5114872;28;20059;-77
2021/06/02 00:38:28;;;;;;;1.13;1.02;;;;;;;13.18;49.73;96301.28;5113472;28;20039;-74
2021/06/02 00:40:54;;;;;;;1.85;1.08;;;;;;;13.13;50.00;96297.78;5114537;28;20042;-75
2021/06/02 00:43:20;;;;;;;0.70;0.70;;;;;;;13.09;50.19;96300.09;5114070;28;20480;-76
2021/06/02 00:45:54;;;;;;;1.77;1.02;;;;;;;13.03;50.23;96289.72;5114688;28;20036;-76
2021/06/02 00:48:20;;;;;;;1.00;1.00;;;;;;;12.98;50.47;96299.13;5114580;28;20036;-76
2021/06/02 00:50:49;;;;;;;1.00;1.00;;;;;;;12.92;50.77;96300.06;5114502;28;20040;-76
2021/06/02 00:53:17;;;;;;;1.95;1.00;;;;;;;12.86;50.87;96295.75;5114452;27;20047;-76
2021/06/02 00:55:44;;;;;;;1.08;1.08;;;;;;;12.84;50.96;96297.00;5114359;28;20494;-77
2021/06/02 00:58:24;;;;;;;1.05;1.00;;;;;;;12.78;52.13;96299.53;5114327;28;20027;-77
2021/06/02 01:00:52;;;;;;;1.10;1.10;;;;;;;12.75;51.50;96299.22;5113080;28;20039;-77
2021/06/02 01:03:22;;;;;;;1.00;0.93;;;;;;;12.68;51.80;96293.28;5114158;28;20456;-77
2021/06/02 01:05:50;;;;;;;1.92;1.08;;;;;;;12.63;51.98;96298.47;5114450;28;20032;-77
2021/06/02 01:08:21;;;;;;;0.90;0.90;;;;;;;12.57;52.13;96289.66;5113768;28;20040;-77
2021/06/02 01:10:50;;;;;;;0.80;0.80;;;;;;;12.52;52.22;96289.59;5114323;28;20035;-77
2021/06/02 01:13:22;;;;;;;;;;;;;;;12.51;53.16;96298.50;5115272;28;20391;-77
2021/06/02 01:15:51;;;;;;;2.42;0.73;;;;;;;12.47;52.27;96284.22;5112786;28;19922;-77
2021/06/02 01:18:21;;;;;;;0.90;0.90;;;;;;;12.45;52.52;96294.97;5113692;27;20467;-77
2021/06/02 01:20:48;;;;;;;0.95;0.95;;;;;;;12.42;52.49;96287.53;5113764;28;20044;-77
2021/06/02 01:23:16;;;;;;;1.00;0.93;;;;;;;12.39;52.63;96295.91;5114093;28;20422;-76
2021/06/02 01:25:44;;;;;;;1.67;0.98;;;;;;;12.36;52.77;96294.53;5102044;28;20043;-75
2021/06/02 01:28:10;;;;;;;1.10;1.00;;;;;;;12.34;52.76;96286.06;5114035;28;20110;-76
2021/06/02 01:30:38;;;;;;;1.60;0.85;;;;;;;12.32;52.76;96296.00;5113881;28;20050;-75
2021/06/02 01:33:15;;;;;;;1.67;1.00;;;;;;;12.28;53.17;96294.88;5113720;28;20654;-76
2021/06/02 01:35:57;;;;;;;0.90;0.90;;;;;;;12.24;53.51;96295.59;5114317;28;20062;-76
2021/06/02 01:39:01;;;;;;;1.13;1.08;;;;;;;12.19;53.81;96301.53;5113368;28;20427;-75
2021/06/02 01:41:40;;;;;;;1.20;1.10;;;;;;;12.13;53.69;96298.00;5113634;28;20031;-75
2021/06/02 01:44:41;;;;;;;0.90;0.90;;;;;;;12.09;53.94;96296.06;5114379;28;20023;-76
2021/06/02 01:47:25;;;;;;;1.02;1.02;;;;;;;12.03;53.60;96292.53;5113445;28;20038;-76
2021/06/02 01:50:29;;;;;;;0.90;0.90;;;;;;;11.98;54.48;96300.31;5113141;28;20055;-76
2021/06/02 01:53:14;;;;;;;1.27;1.23;;;;;;;11.94;54.18;96299.16;5122294;27;20048;-76
2021/06/02 01:55:43;;;;;;;0.88;0.88;;;;;;;11.91;53.91;96286.50;5113794;28;20039;-76
2021/06/02 01:58:23;;;;;;;0.95;0.93;;;;;;;11.91;54.22;96292.56;5113239;28;20032;-76
2021/06/02 02:01:08;;;;;;;2.08;1.27;;;;;;;11.86;54.08;96281.88;5113095;28;20039;-75
2021/06/02 02:03:53;;;;;;;;;;;;;;;11.83;54.33;96287.63;5114048;28;20365;-76
2021/06/02 02:07:07;;;;;;;1.20;1.10;;;;;;;11.76;54.92;96294.81;5113186;28;20389;-76
2021/06/02 02:10:27;;;;;;;1.17;1.10;;;;;;;11.73;54.91;96293.44;5068843;28;20044;-77
2021/06/02 02:12:59;;;;;;;1.00;0.80;;;;;;;11.68;54.45;96289.91;5054506;28;20032;-76
2021/06/02 02:15:47;;;;;;;1.08;1.08;;;;;;;11.63;54.81;96292.41;5093904;28;20035;-77
2021/06/02 02:18:32;;;;;;;1.45;1.10;;;;;;;11.57;55.04;96292.31;5104092;28;20019;-76
2021/06/02 02:21:16;;;;;;;1.58;1.10;;;;;;;11.53;55.11;96287.72;5117461;28;20471;-77
2021/06/02 02:24:10;;;;;;;1.27;1.13;;;;;;;11.49;55.85;96307.59;5117978;28;20399;-77
2021/06/02 02:27:13;;;;;;;1.45;1.15;;;;;;;11.43;55.70;96311.13;5117227;28;20042;-77
2021/06/02 02:29:51;;;;;;;1.73;1.13;;;;;;;11.39;55.30;96308.13;5106489;28;20395;-77
2021/06/02 02:33:05;;;;;;;1.10;1.00;;;;;;;11.36;55.81;96313.84;5117745;28;20031;-77
2021/06/02 02:35:52;;;;;;;1.17;1.00;;;;;;;11.31;55.69;96308.47;5054164;28;20054;-77
2021/06/02 02:38:36;;;;;;;0.90;0.90;;;;;;;11.26;55.89;96313.59;5117118;28;20039;-77
2021/06/02 02:41:20;;;;;;;1.30;1.20;;;;;;;11.20;55.75;96304.00;5117120;28;20057;-77
2021/06/02 02:44:14;;;;;;;1.30;1.20;;;;;;;11.13;56.09;96299.66;5117298;27;20039;-77
2021/06/02 02:46:53;;;;;;;1.00;1.00;;;;;;;11.09;56.18;96301.13;5115539;28;20038;-76
2021/06/02 02:49:56;;;;;;;1.10;1.00;;;;;;;11.07;56.71;96315.50;5117281;27;20387;-76
2021/06/02 02:52:41;;;;;;;1.15;1.15;;;;;;;11.03;56.58;96314.34;5102180;28;20474;-77
2021/06/02 02:55:18;;;;;;;1.00;1.00;;;;;;;10.98;56.41;96301.88;5116626;28;20027;-77
2021/06/02 02:58:06;;;;;;;3.00;1.30;;;;;;;10.95;57.20;96318.88;5116325;28;20051;-78
2021/06/02 03:00:40;;;;;;;1.08;1.00;;;;;;;10.91;56.47;96319.53;5116579;28;20039;-76
2021/06/02 03:03:26;;;;;;;1.77;1.20;;;;;;;10.87;57.37;96334.91;5116721;28;20461;-76
2021/06/02 03:06:14;;;;;;;1.35;1.20;;;;;;;10.83;56.75;96319.84;5115425;28;20050;-76
2021/06/02 03:08:59;;;;;;;1.08;1.08;;;;;;;10.79;57.36;96318.69;5116738;28;20050;-77
2021/06/02 03:11:25;;;;;;;;;;;;;;;10.74;57.83;96324.59;5109046;28;20066;-76
2021/06/02 03:14:25;;;;;;;1.00;0.90;;;;;;;10.70;57.83;96321.63;5116316;28;19908;-76
2021/06/02 03:16:58;;;;;;;1.42;1.08;;;;;;;10.67;57.10;96323.91;5101434;28;20035;-76
2021/06/02 03:20:00;;;;;;;1.03;1.00;;;;;;;10.65;57.92;96331.97;5116419;28;20043;-76
2021/06/02 03:22:41;;;;;;;1.70;1.60;;;;;;;10.61;58.00;96330.03;5101524;28;20285;-75
2021/06/02 03:25:20;;;;;;;1.83;1.10;;;;;;;10.57;57.87;96335.69;5116412;28;20031;-76
2021/06/02 03:28:05;;;;;;;1.42;1.20;;;;;;;10.55;58.09;96327.25;5114705;28;20028;-77
2021/06/02 03:30:40;;;;;;;1.80;1.00;;;;;;;10.53;57.78;96318.00;5116637;28;20150;-75
2021/06/02 03:33:49;;;;;;;0.73;0.73;;;;;;;10.50;58.54;96327.13;5114744;28;20031;-77
2021/06/02 03:36:34;;;;;;;1.65;1.30;;;;;;;10.47;58.40;96324.13;5115558;28;20047;-76
2021/06/02 03:39:22;;;;;;;1.20;1.20;;;;;;;10.45;58.49;96319.09;5106133;28;20051;-77
2021/06/02 03:42:13;;;;;;;2.15;1.17;;;;;;;10.44;58.32;96317.50;5104916;28;20039;-75
2021/06/02 03:45:02;;;;;;;1.05;1.00;;;;;;;10.42;58.68;96329.25;5105922;28;20047;-76
2021/06/02 03:47:52;;;;;;;1.05;1.05;;;;;;;10.35;58.61;96330.13;5102870;28;20044;-76
2021/06/02 03:50:28;;;;;;;1.77;1.17;;;;;;;10.32;58.00;96327.91;5115823;28;20035;-77
2021/06/02 03:53:18;;;;;;;1.58;0.98;;;;;;;10.32;58.86;96341.03;5115469;28;20036;-76
2021/06/02 03:56:02;;;;;;;1.30;1.30;;;;;;;10.31;59.42;96344.69;5115748;27;20039;-76
2021/06/02 03:58:51;;;;;;;1.37;1.27;;;;;;;10.29;59.15;96340.63;5115929;28;20047;-75
2021/06/02 04:01:32;;;;;;;1.52;1.25;;;;;;;10.24;59.12;96343.91;5115608;28;20459;-76
2021/06/02 04:04:26;;;;;;;1.30;1.25;;;;;;;10.21;58.88;96339.09;5115218;28;20494;-76
2021/06/02 04:07:06;;;;;;;1.17;1.08;;;;;;;10.18;58.96;96339.53;5115477;28;20040;-78
2021/06/02 04:09:42;;;;;;;1.15;0.90;;;;;;;10.18;58.87;96336.13;5114819;28;20052;-76
2021/06/02 04:12:34;;;;;;;1.30;1.30;;;;;;;10.22;59.55;96345.94;5115397;28;20035;-77
2021/06/02 04:15:04;;;;;;;1.40;1.30;;;;;;;10.22;58.96;96340.69;5115036;28;20042;-76
2021/06/02 04:17:33;;;;;;;2.38;1.40;;;;;;;10.24;58.88;96338.66;5115037;28;20036;-77
2021/06/02 04:20:03;;;;;;;1.10;1.10;;;;;;;10.30;58.97;96340.44;5115065;28;20032;-77
2021/06/02 04:22:32;;;;;;;1.40;1.40;;;;;;;10.33;58.99;96331.34;5113921;28;20035;-77
2021/06/02 04:25:01;;;;;;;1.30;1.20;;;;;;;10.44;58.90;96335.88;5115558;28;20039;-78
2021/06/02 04:27:33;;;;;;;1.77;1.30;;;;;;;10.59;59.12;96335.50;5114888;28;20368;-76
2021/06/02 04:30:04;;;;;;;1.40;1.30;;;;;;;10.79;59.14;96347.53;5115189;28;20032;-76
2021/06/02 04:32:54;;;;;;;1.50;1.40;;;;;;;11.02;58.86;96342.38;5114574;28;20040;-76
2021/06/02 04:35:20;;;;;;;1.45;1.35;;;;;;;11.26;58.66;96347.72;5104736;28;20052;-76
2021/06/02 04:37:47;;;;;;;1.50;1.40;;;;;;;11.50;58.61;96345.94;5114742;28;20044;-76
2021/06/02 04:40:13;;;;;;;1.70;1.40;;;;;;;11.77;58.25;96352.38;5113676;28;20032;-74
2021/06/02 04:42:40;;;;;;;1.25;1.25;;;;;;;12.05;57.98;96350.13;5114056;28;20047;-75
2021/06/02 04:45:12;;;;;;;1.13;1.13;;;;;;;12.33;57.67;96357.31;5115224;28;20042;-75
2021/06/02 04:47:40;;;;;;;1.33;1.33;;;;;;;12.62;57.39;96354.72;5113224;28;20054;-74
2021/06/02 04:50:15;;;;;;;2.00;1.90;;;;;;;12.87;56.97;96357.88;5115055;28;20039;-75
2021/06/02 04:53:16;;;;;;;2.15;2.00;;;;;;;12.94;54.94;96342.75;5114576;28;20035;-76
2021/06/02 04:56:39;;;;;;;1.83;1.73;;;;;;;12.91;54.76;96345.81;5113375;28;20062;-77
2021/06/02 04:59:14;;;;;;;3.65;2.13;;;;;;;13.05;55.36;96350.81;5051514;28;20037;-77
2021/06/02 05:02:12;;;;;;;1.77;1.67;;;;;;;13.28;54.45;96340.19;5051766;28;20033;-76
2021/06/02 05:05:03;;;;;;;2.00;1.80;;;;;;;13.47;53.99;96334.72;5069976;28;20055;-76
2021/06/02 05:08:10;;;;;;;1.70;1.60;;;;;;;13.76;53.52;96338.88;5114116;28;20035;-77
2021/06/02 05:10:49;;;;;;;1.50;1.40;;;;;;;14.13;54.26;96343.63;5114488;28;20456;-76
2021/06/02 05:13:53;;;;;;;1.70;1.50;;;;;;;14.53;52.05;96325.91;5114423;28;20489;-77
2021/06/02 05:16:40;;;;;;;1.58;1.48;;;;;;;14.92;51.04;96326.66;5100753;28;20034;-76
2021/06/02 05:22:32;;;;;;;1.90;1.80;;;;;;;15.56;50.05;96317.19;5104340;28;20052;-76
2021/06/02 05:25:37;;;;;;;1.90;1.80;;;;;;;15.89;49.16;96315.38;5100063;28;20403;-75
2021/06/02 05:28:22;;;;;;;1.70;1.60;;;;;;;16.22;50.18;96324.81;5113397;28;20036;-76
2021/06/02 05:31:24;;;;;;;1.70;1.60;;;;;;;16.53;46.70;96309.09;5113766;28;20368;-75
2021/06/02 05:34:02;;;;;;;1.50;1.40;;;;;;;16.81;46.95;96315.81;5113799;28;20032;-76
2021/06/02 05:37:07;;;;;;;1.90;1.80;;;;;;;17.09;46.19;96317.22;5113545;28;20060;-76
2021/06/02 05:39:45;;;;;;;2.10;1.52;;;;;;;17.32;47.27;96331.03;5113732;28;20046;-75
2021/06/02 05:42:21;;;;;;;1.60;1.50;;;;;;;17.55;45.47;96319.91;5113885;28;20039;-75
2021/06/02 05:45:16;;;;;;;1.70;1.58;;;;;;;17.64;44.17;96314.88;5112341;28;20411;-75
2021/06/02 05:48:25;;;;;;;1.50;1.40;;;;;;;17.82;43.95;96321.50;5101297;28;20063;-75
2021/06/02 05:51:33;;;;;;;1.40;1.30;;;;;;;18.11;43.78;96323.59;5105128;28;20403;-76
2021/06/02 05:54:14;;;;;;;2.13;1.30;;;;;;;18.33;43.26;96324.09;5085968;28;20040;-76
2021/06/02 05:57:01;;;;;;;1.27;1.27;;;;;;;18.64;42.48;96321.31;5113375;28;20050;-76
2021/06/02 06:00:04;;;;;;;2.72;2.53;;;;;;;18.94;42.15;96325.72;5113252;28;20039;-76
2021/06/02 06:02:55;;;;;;;2.35;1.30;;;;;;;19.01;41.72;96341.38;5114010;28;20031;-75
2021/06/02 06:05:24;;;;;;;2.55;2.35;;;;;;;19.15;42.25;96349.50;5104370;28;20464;-76
2021/06/02 06:08:21;;;;;;;1.63;1.52;;;;;;;19.35;41.76;96330.00;5100190;28;20387;-75
2021/06/02 06:11:09;;;;;;;1.63;1.52;;;;;;;19.42;40.42;96325.97;5113225;28;20031;-76
2021/06/02 06:13:50;;;;;;;1.73;1.42;;;;;;;19.48;41.28;96329.34;5112870;28;20039;-76
2021/06/02 06:16:54;;;;;;;1.55;1.45;;;;;;;19.61;40.23;96319.94;5113425;28;20027;-75
2021/06/02 06:19:29;;;;;;;2.88;1.30;;;;;;;19.67;40.19;96319.66;5113334;28;20024;-76
2021/06/02 06:22:22;;;;;;;1.95;1.40;;;;;;;19.74;40.99;96322.00;5113431;28;20027;-76
2021/06/02 06:24:54;;;;;;;1.45;1.35;;;;;;;19.93;40.35;96313.31;5089224;28;20051;-76
2021/06/02 06:27:29;;;;;;;1.30;1.30;;;;;;;20.11;40.11;96309.16;5113276;28;20042;-76
2021/06/02 06:30:01;;;;;;;2.47;1.50;;;;;;;20.21;39.37;96319.69;5112362;28;20042;-76
2021/06/02 06:32:30;;;;;;;1.63;1.52;;;;;;;20.20;39.67;96318.91;5112935;28;20071;-76
2021/06/02 06:34:59;;;;;;;1.75;1.65;;;;;;;20.17;39.50;96311.47;5112971;28;20055;-76
2021/06/02 06:37:31;;;;;;;1.55;1.40;;;;;;;19.75;39.56;96320.91;5113144;28;20050;-76
2021/06/02 06:40:02;;;;;;;1.50;1.40;;;;;;;19.59;39.76;96322.09;5112675;28;20483;-76
2021/06/02 06:42:33;;;;;;;2.58;1.60;;;;;;;19.55;40.09;96323.72;5113372;28;20035;-76
2021/06/02 06:45:06;;;;;;;1.67;1.58;;;;;;;19.74;40.08;96321.19;5113314;28;20032;-76
2021/06/02 06:47:34;;;;;;;1.65;1.60;;;;;;;19.53;40.04;96332.00;5113089;28;20054;-76
2021/06/02 06:50:02;;;;;;;1.60;1.50;;;;;;;19.55;40.45;96334.34;5112444;28;20046;-76
2021/06/02 06:52:30;;;;;;;1.75;1.65;;;;;;;19.38;40.40;96334.75;5112176;28;20494;-75
2021/06/02 06:54:58;;;;;;;1.83;1.70;;;;;;;19.34;40.87;96337.19;5112883;28;20039;-76
2021/06/02 06:57:26;;;;;;;1.80;1.70;;;;;;;19.16;40.99;96353.78;5116366;28;20050;-75
2021/06/02 06:59:53;;;;;;;2.10;2.00;;;;;;;19.13;41.07;96359.63;5116637;28;20054;-75
2021/06/02 07:02:20;;;;;;;1.70;1.60;;;;;;;19.15;40.86;96350.31;5116742;28;20387;-76
2021/06/02 07:04:47;;;;;;;1.63;1.52;;;;;;;19.37;41.07;96357.88;5116441;27;20031;-76
2021/06/02 07:07:14;;;;;;;2.33;1.70;;;;;;;19.87;40.67;96360.47;5116357;28;20039;-75
2021/06/02 07:09:40;;;;;;;1.67;1.58;;;;;;;20.26;40.17;96355.06;5116524;28;20364;-75
2021/06/02 07:12:08;;;;;;;2.88;1.73;;;;;;;20.31;39.51;96356.09;5116564;28;20043;-76
2021/06/02 07:14:37;;;;;;;1.70;1.60;;;;;;;20.11;38.90;96359.72;5116535;28;20048;-77
2021/06/02 07:17:06;;;;;;;2.47;1.55;;;;;;;20.09;39.37;96365.31;5116424;28;20048;-77
2021/06/02 07:19:35;;;;;;;1.60;1.50;;;;;;;20.04;39.29;96360.06;5116192;28;20035;-77
2021/06/02 07:22:02;;;;;;;1.95;1.67;;;;;;;20.23;39.39;96352.16;5116340;28;20039;-77
2021/06/02 07:24:29;;;;;;;1.85;1.73;;;;;;;20.30;39.32;96343.84;5115706;28;20055;-76
2021/06/02 07:26:57;;;;;;;1.67;1.58;;;;;;;20.55;38.91;96342.75;5116259;28;20038;-76
2021/06/02 07:29:25;;;;;;;1.58;1.48;;;;;;;20.86;38.99;96341.34;5116059;28;20031;-77
2021/06/02 07:31:52;;;;;;;3.03;1.65;;;;;;;21.02;38.30;96349.13;5116657;28;20046;-77
2021/06/02 07:34:20;;;;;;;1.83;1.63;;;;;;;21.20;38.18;96348.34;5115804;28;20035;-76
2021/06/02 07:36:47;;;;;;;1.40;1.27;;;;;;;21.61;38.01;96337.13;5116381;28;20043;-76
2021/06/02 07:39:14;;;;;;;1.90;1.80;;;;;;;21.99;37.34;96330.91;5116054;28;20051;-76
2021/06/02 07:41:40;;;;;;;1.45;1.35;;;;;;;22.24;36.81;96335.81;5115894;28;20040;-76
2021/06/02 07:44:06;;;;;;;2.35;1.20;;;;;;;22.13;36.11;96342.38;5115694;28;20038;-75
2021/06/02 07:46:34;;;;;;;1.85;1.27;;;;;;;22.02;35.79;96355.13;5115966;28;20043;-76
2021/06/02 07:49:05;;;;;;;1.13;1.13;;;;;;;22.37;35.03;96352.16;5115628;27;20036;-76
2021/06/02 07:51:32;;;;;;;1.23;0.90;;;;;;;22.62;35.34;96357.00;5115668;28;20118;-75
2021/06/02 07:53:58;;;;;;;0.80;0.80;;;;;;;22.84;34.60;96355.50;5115743;28;20047;-75
2021/06/02 07:56:24;;;;;;;0.70;0.70;;;;;;;23.18;34.04;96365.78;5115494;28;20043;-76
2021/06/02 07:58:51;;;;;;;1.15;0.82;;;;;;;23.58;33.26;96359.78;5115772;28;20066;-75
2021/06/02 08:01:17;;;;;;;1.00;1.00;;;;;;;23.95;32.55;96353.31;5115917;28;20035;-75
2021/06/02 08:03:43;;;;;;;1.15;0.77;;;;;;;24.12;31.61;96363.34;5114908;28;20475;-75
2021/06/02 08:06:09;;;;;;;1.27;0.82;;;;;;;23.77;31.04;96365.81;5115208;28;20035;-75
2021/06/02 08:08:36;;;;;;;0.80;0.80;;;;;;;23.54;31.01;96369.53;5115338;28;20467;-75
2021/06/02 08:11:02;;;;;;;1.40;0.80;;;;;;;23.66;30.89;96362.53;5115020;28;20047;-76
2021/06/02 08:13:28;;;;;;;1.25;0.70;;;;;;;23.83;30.34;96355.75;5115920;28;20063;-74
2021/06/02 08:15:54;;;;;;;1.38;1.00;;;;;;;24.07;29.77;96356.22;5114978;28;20039;-75
2021/06/02 08:18:21;;;;;;;0.82;0.82;;;;;;;24.44;29.86;96356.06;5114778;28;20070;-75
2021/06/02 08:20:47;;;;;;;1.20;0.85;;;;;;;24.74;29.28;96359.84;5115633;28;20036;-75
2021/06/02 08:23:14;;;;;;;1.25;0.75;;;;;;;24.92;29.39;96361.47;5114620;28;20215;-75
2021/06/02 08:25:40;;;;;;;0.90;0.77;;;;;;;25.09;29.16;96365.28;5114732;28;20043;-75
2021/06/02 08:28:06;;;;;;;0.77;0.70;;;;;;;25.21;28.78;96360.13;5115542;28;20038;-75
2021/06/02 08:30:33;;;;;;;0.82;0.82;;;;;;;25.26;28.68;96364.53;5114946;28;20043;-75
2021/06/02 08:32:59;;;;;;;0.70;0.70;;;;;;;25.02;28.36;96367.63;5115000;28;20490;-75
2021/06/02 08:35:25;;;;;;;1.67;0.68;;;;;;;24.73;28.63;96368.19;5114958;28;20506;-75
2021/06/02 08:37:54;;;;;;;1.52;0.70;;;;;;;24.70;28.65;96362.34;5114736;28;20051;-75
2021/06/02 08:40:20;;;;;;;0.85;0.70;;;;;;;24.88;28.75;96360.53;5113102;28;20043;-75
2021/06/02 08:42:47;;;;;;;1.77;0.70;;;;;;;25.15;28.65;96365.91;5115383;27;20036;-75
2021/06/02 08:45:16;;;;;;;0.63;0.63;;;;;;;25.45;28.51;96359.66;5114829;28;20039;-75
2021/06/02 08:47:43;;;;;;;0.95;0.65;;;;;;;25.28;28.09;96357.78;5115143;28;20043;-74
2021/06/02 08:50:13;;;;;;;1.77;0.73;;;;;;;25.36;28.03;96355.38;5114324;28;20039;-75
2021/06/02 08:52:41;;;;;;;0.80;0.80;;;;;;;25.45;27.63;96361.53;5112891;28;20402;-75
2021/06/02 08:55:10;;;;;;;1.88;1.13;;;;;;;25.26;27.73;96365.34;5114653;28;20032;-74
2021/06/02 08:57:44;;;;;;;0.70;0.70;;;;;;;25.31;27.59;96367.09;5114833;28;20031;-74
2021/06/02 09:00:14;;;;;;;1.23;0.93;;;;;;;25.39;28.09;96365.47;5114218;27;20040;-74
2021/06/02 09:02:42;;;;;;;0.80;0.80;;;;;;;25.58;28.34;96367.88;5114135;28;20491;-74
2021/06/02 09:05:09;;;;;;;1.08;0.88;;;;;;;25.81;28.37;96365.81;5114218;28;20044;-75
2021/06/02 09:07:38;;;;;;;2.03;0.90;;;;;;;25.97;28.17;96366.91;5114108;28;20066;-74
2021/06/02 09:10:10;;;;;;;1.10;0.80;;;;;;;25.98;nan;96356.97;5113883;28;20052;-74
2021/06/02 09:12:39;;;;;;;0.88;0.88;;;;;;;26.15;28.53;96364.97;5114730;28;20038;-74
2021/06/02 09:15:10;;;;;;;0.88;0.70;;;;;;;26.35;28.42;96365.38;5114082;28;20105;-74
2021/06/02 09:17:58;;;;;;;1.70;0.80;;;;;;;26.48;27.68;96364.38;5113785;28;20036;-74
2021/06/02 09:20:36;;;;;;;0.88;0.68;;;;;;;26.52;27.55;96360.75;5113416;28;20054;-74
2021/06/02 09:23:38;;;;;;;0.82;0.80;;;;;;;26.62;27.24;96361.50;5114025;28;20024;-73
2021/06/02 09:26:14;;;;;;;0.65;0.65;;;;;;;26.72;26.29;96370.00;5112501;28;20050;-74
2021/06/02 09:29:02;;;;;;;1.52;0.80;;;;;;;26.88;26.88;96364.09;5113768;28;20044;-74
2021/06/02 09:31:36;;;;;;;1.02;0.70;;;;;;;27.11;26.61;96375.34;5113852;28;20039;-74
2021/06/02 09:34:04;;;;;;;0.73;0.50;;;;;;;26.87;26.38;96373.25;5113656;28;20042;-74
2021/06/02 09:36:34;;;;;;;0.60;0.60;;;;;;;26.77;26.33;96373.63;5113386;28;20047;-74
2021/06/02 09:39:06;;;;;;;0.82;0.82;;;;;;;26.81;25.53;96369.16;5114437;28;20445;-74
2021/06/02 09:41:47;;;;;;;0.98;0.70;;;;;;;26.95;25.40;96361.66;5113726;27;20044;-74
2021/06/02 09:44:20;;;;;;;1.45;0.80;;;;;;;26.69;25.33;96357.22;5112090;28;20483;-74
2021/06/02 09:47:11;;;;;;;0.80;0.80;;;;;;;26.46;25.76;96369.31;5113278;28;20047;-75
2021/06/02 09:49:52;;;;;;;0.73;0.73;;;;;;;26.50;25.84;96367.53;5101452;28;20035;-74
2021/06/02 09:52:36;;;;;;;0.70;0.70;;;;;;;26.29;26.15;96370.94;5113537;28;20036;-75
2021/06/02 09:55:17;;;;;;;0.60;0.60;;;;;;;26.05;26.53;96366.09;5113214;28;20373;-74
2021/06/02 09:57:46;;;;;;;0.60;0.60;;;;;;;26.08;26.87;96365.47;5113667;28;20043;-73
2021/06/02 10:00:14;;;;;;;1.45;0.98;;;;;;;26.41;26.67;96361.41;5113402;28;20356;-74
2021/06/02 10:02:41;;;;;;;0.80;0.80;;;;;;;26.83;26.74;96365.03;5104313;28;20031;-74
2021/06/02 10:05:11;;;;;;;1.30;0.98;;;;;;;27.03;26.93;96368.09;5113682;28;20379;-74
2021/06/02 10:07:46;;;;;;;0.70;0.70;;;;;;;27.22;25.25;96344.25;5113399;28;20035;-74
2021/06/02 10:10:14;;;;;;;1.00;0.80;;;;;;;27.39;25.97;96356.78;5113590;28;20035;-74
2021/06/02 10:13:09;;;;;;;1.45;0.50;;;;;;;27.21;24.39;96352.63;5113443;28;20059;-74
2021/06/02 10:15:40;;;;;;;0.57;0.57;;;;;;;27.06;25.95;96351.28;5113540;28;20395;-74
2021/06/02 10:18:22;;;;;;;2.05;0.68;;;;;;;27.06;24.32;96343.22;5113434;28;20044;-73
2021/06/02 10:21:13;;;;;;;0.63;0.63;;;;;;;27.13;25.06;96351.53;5099697;28;20032;-74
2021/06/02 10:23:43;;;;;;;2.58;0.63;;;;;;;27.24;25.19;96349.31;5113387;28;20106;-74
2021/06/02 10:26:12;;;;;;;0.80;0.80;;;;;;;27.37;25.29;96356.31;5113394;28;20047;-75
2021/06/02 10:28:38;;;;;;;0.60;0.60;;;;;;;27.72;25.27;96356.81;5101841;28;20032;-74
2021/06/02 10:31:07;;;;;;;1.55;0.70;;;;;;;28.07;24.70;96356.50;5116544;28;20036;-74
2021/06/02 10:33:34;;;;;;;1.00;1.00;;;;;;;28.44;24.97;96350.41;5116675;28;20044;-74
2021/06/02 10:36:04;;;;;;;1.55;0.90;;;;;;;28.74;24.87;96342.91;5116896;28;20411;-74
2021/06/02 10:38:44;;;;;;;0.85;0.80;;;;;;;28.96;24.48;96349.75;5117241;28;20043;-74
2021/06/02 10:41:17;;;;;;;0.60;0.50;;;;;;;28.97;24.63;96353.22;5116939;28;20043;-75
2021/06/02 10:43:50;;;;;;;1.55;0.70;;;;;;;29.01;24.26;96346.81;5117554;28;20395;-74
2021/06/02 10:46:21;;;;;;;2.15;0.60;;;;;;;29.00;23.82;96347.94;5116941;28;20062;-75
2021/06/02 10:48:51;;;;;;;1.83;0.80;;;;;;;29.04;23.64;96348.84;5117283;28;20039;-74
2021/06/02 10:51:31;;;;;;;0.65;0.50;;;;;;;29.12;23.72;96349.84;5116783;28;20032;-74
2021/06/02 10:54:11;;;;;;;1.00;0.90;;;;;;;29.34;23.54;96345.88;5117455;28;20042;-75
2021/06/02 10:56:57;;;;;;;0.60;0.60;;;;;;;29.52;23.41;96352.56;5116775;27;20058;-74
2021/06/02 10:59:28;;;;;;;0.93;0.50;;;;;;;29.66;23.17;96359.50;5101177;28;20028;-74
2021/06/02 11:02:09;;;;;;;0.80;0.68;;;;;;;29.70;23.08;96349.59;5116503;28;20038;-74
2021/06/02 11:04:40;;;;;;;0.68;0.60;;;;;;;29.85;23.03;96354.25;5116526;28;20448;-74
2021/06/02 11:07:20;;;;;;;0.88;0.77;;;;;;;29.92;23.14;96349.06;5116832;28;20040;-74
2021/06/02 11:09:56;;;;;;;0.50;0.50;;;;;;;30.03;22.68;96348.53;5116806;28;20046;-74
2021/06/02 11:12:24;;;;;;;0.63;0.63;;;;;;;30.12;22.45;96343.75;5116408;28;20467;-74
2021/06/02 11:14:52;;;;;;;0.60;0.60;;;;;;;30.12;22.49;96344.53;5116699;28;20036;-73
2021/06/02 11:17:26;;;;;;;0.60;0.60;;;;;;;30.29;22.40;96334.53;5116305;27;20042;-74
2021/06/02 11:19:54;;;;;;;1.05;0.43;;;;;;;30.31;22.45;96343.88;5115741;28;20058;-75
2021/06/02 11:22:24;;;;;;;2.08;0.90;;;;;;;30.24;22.24;96342.88;5116243;28;20035;-76
2021/06/02 11:24:51;;;;;;;0.63;0.40;;;;;;;30.23;22.33;96342.09;5115901;28;20031;-75
2021/06/02 11:27:18;;;;;;;0.60;0.60;;;;;;;30.09;22.25;96347.13;5116050;28;20040;-75
2021/06/02 11:29:53;;;;;;;0.52;0.52;;;;;;;30.06;23.14;96345.91;5116111;28;20054;-75
2021/06/02 11:32:27;;;;;;;0.55;0.55;;;;;;;30.23;22.56;96342.09;5116091;28;20036;-75
2021/06/02 11:35:01;;;;;;;0.93;0.60;;;;;;;30.42;22.11;96344.13;5115154;28;20503;-75
2021/06/02 11:37:30;;;;;;;1.20;0.70;;;;;;;30.52;21.92;96342.84;5115406;28;20483;-75
2021/06/02 11:39:59;;;;;;;0.50;0.50;;;;;;;30.49;22.18;96344.31;5116313;28;20408;-75
2021/06/02 11:42:30;;;;;;;0.77;0.68;;;;;;;30.21;21.09;96355.19;5115382;28;20486;-75
2021/06/02 11:45:05;;;;;;;1.48;0.80;;;;;;;29.82;21.49;96346.84;5115305;28;20036;-76
2021/06/02 11:47:31;;;;;;;;;;;;;;;29.80;21.01;96345.59;5116346;28;20039;-75
2021/06/02 11:50:11;;;;;;;0.50;0.50;;;;;;;29.88;21.03;96345.47;5115391;28;19915;-75
2021/06/02 11:52:38;;;;;;;1.15;0.57;;;;;;;30.07;21.45;96342.09;5115381;27;20055;-75
2021/06/02 11:55:08;;;;;;;0.55;0.55;;;;;;;30.30;21.71;96347.72;5115666;28;20383;-75
2021/06/02 11:57:39;;;;;;;0.50;0.50;;;;;;;30.51;21.55;96342.06;5115327;28;20464;-75
2021/06/02 12:00:17;;;;;;;1.02;0.60;;;;;;;30.12;21.03;96349.94;5114870;28;20043;-75
2021/06/02 12:02:45;;;;;;;0.55;0.52;;;;;;;30.02;21.09;96346.97;5116292;28;20451;-75
2021/06/02 12:05:35;;;;;;;1.63;0.60;;;;;;;30.09;21.77;96357.94;5114890;28;20039;-75
2021/06/02 12:08:07;;;;;;;1.40;0.50;;;;;;;30.19;21.68;96348.56;5115116;27;20480;-75
2021/06/02 12:10:35;;;;;;;0.65;0.60;;;;;;;30.22;21.75;96351.34;5115346;27;20031;-75
2021/06/02 12:13:05;;;;;;;0.57;0.47;;;;;;;30.08;22.11;96345.59;5115603;28;20035;-76
2021/06/02 12:15:46;;;;;;;1.98;0.40;;;;;;;29.95;20.88;96340.22;5115271;28;20038;-76
2021/06/02 12:18:29;;;;;;;0.70;0.70;;;;;;;29.92;22.13;96353.66;5114956;28;20039;-75
2021/06/02 12:21:16;;;;;;;0.43;0.43;;;;;;;30.12;21.44;96349.94;5115220;28;20024;-75
2021/06/02 12:23:46;;;;;;;0.60;0.60;;;;;;;30.41;21.80;96345.28;5115512;28;20031;-75